Time;durP1;ratioP1;P1;durP2;ratioP2;P2;SDS_P1;SDS_P2;PMS_P1;PMS_P2;Temp;Humidity;BMP_temperature;BMP_pressure;BME280_temperature;BME280_humidity;BME280_pressure;Samples;Min_cycle;Max_cycle;Signal;HPM_P1;HPM_P2
2022/04/14 06:08:14;;;;;;;;;;;10.90;99.90;;;;;;3612564;24;20282;-86
2022/04/14 06:17:12;;;;;;;;;;;;;;;;;;;;;
2022/04/14 06:19:51;;;;;;;;;;;;;;;;;;;;;
2022/04/14 06:22:47;;;;;;;;;;;;;;;;;;;;;
2022/04/14 06:28:37;;;;;;;;;;;;;;;;;;;;;
2022/04/14 06:30:56;;;;;;;;;;;11.10;99.90;;;;;;4834854;29;19921;-90
2022/04/14 06:33:46;;;;;;;;;;;11.20;99.90;;;;;;4828800;29;19955;-90
2022/04/14 06:36:45;;;;;;;;;;;;;;;;;;;;;
2022/04/14 06:42:33;;;;;;;;;;;;;;;;;;;;;
2022/04/14 06:45:43;;;;;;;;;;;11.40;99.90;;;;;;4801303;30;19964;-89
2022/04/14 06:48:31;;;;;;;;;;;11.50;99.90;;;;;;4838971;29;19965;-90
2022/04/14 06:51:03;;;;;;;;;;;11.50;99.90;;;;;;4849244;29;19944;-89
2022/04/14 06:53:43;;;;;;;;;;;11.60;99.90;;;;;;4849169;29;19964;-89
2022/04/14 07:14:27;;;;;;;;;;;12.10;99.90;;;;;;4726351;30;19941;-90
2022/04/14 07:17:26;;;;;;;;;;;;;;;;;;;;;
2022/04/14 07:20:25;;;;;;;;;;;;;;;;;;;;;
2022/04/14 07:29:20;;;;;;;;;;;12.30;99.90;;;;;;4816595;29;19912;-90
2022/04/14 07:32:13;;;;;;;;;;;12.40;99.90;;;;;;4792325;29;19913;-90
2022/04/14 07:35:03;;;;;;;;;;;12.40;99.90;;;;;;4791788;29;19943;-90
2022/04/14 07:38:02;;;;;;;;;;;;;;;;;;;;;
2022/04/14 07:43:53;;;;;;;;;;;12.50;99.90;;;;;;4808233;29;20016;-90
2022/04/14 07:46:22;;;;;;;;;;;12.60;99.90;;;;;;4807277;29;20354;-90
2022/04/14 07:49:07;;;;;;;;;;;12.70;99.90;;;;;;4791273;29;20323;-90
2022/04/14 07:52:08;;;;;;;;;;;12.70;99.90;;;;;;4815469;29;19956;-90
2022/04/14 07:54:51;;;;;;;;;;;;;;;;;;;;;
2022/04/14 07:57:41;;;;;;;;;;;12.80;99.90;;;;;;4811761;29;20359;-90
2022/04/14 08:00:17;;;;;;;;;;;12.90;99.90;;;;;;4812420;29;19917;-90
2022/04/14 08:05:55;;;;;;;;;;;13.00;99.90;;;;;;4788610;29;19924;-90
2022/04/14 08:08:28;;;;;;;;;;;13.10;99.90;;;;;;4810218;29;20366;-91
2022/04/14 08:11:04;;;;;;;;;;;;;;;;;;;;;
2022/04/14 08:13:36;;;;;;;;;;;13.30;99.90;;;;;;4810065;29;20286;-91
2022/04/14 08:16:27;;;;;;;;;;;13.30;99.90;;;;;;4808180;29;20274;-90
2022/04/14 08:19:02;;;;;;;;;;;13.40;99.90;;;;;;4807270;29;19917;-90
2022/04/14 08:21:58;;;;;;;;;;;;;;;;;;;;;
2022/04/14 08:24:50;;;;;;;;;;;13.60;99.90;;;;;;4779667;29;19921;-90
2022/04/14 08:28:02;;;;;;;;;;;13.70;99.90;;;;;;4807704;29;20000;-91
2022/04/14 08:30:24;;;;;;;;;;;13.80;99.90;;;;;;4810210;29;19952;-90
2022/04/14 08:36:11;;;;;;;;;;;14.00;99.90;;;;;;4837650;29;19908;-91
2022/04/14 08:38:54;;;;;;;;;;;;;;;;;;;;;
2022/04/14 08:41:42;;;;;;;;;;;14.20;99.90;;;;;;4840242;29;20297;-91
2022/04/14 08:44:15;;;;;;;;;;;14.30;99.90;;;;;;4840575;29;19927;-91
2022/04/14 08:47:15;;;;;;;;;;;;;;;;;;;;;
2022/04/14 08:49:57;;;;;;;;;;;;;;;;;;;;;
2022/04/14 08:52:33;;;;;;;;;;;14.70;99.90;;;;;;4826974;29;19919;-91
2022/04/14 08:55:29;;;;;;;;;;;;;;;;;;;;;
2022/04/14 09:04:08;;;;;;;;;;;15.10;99.90;;;;;;4804989;30;19923;-91
2022/04/14 09:07:00;;;;;;;;;;;15.20;99.90;;;;;;4790445;30;19921;-91
2022/04/14 09:09:48;;;;;;;;;;;;;;;;;;;;;
2022/04/14 09:15:27;;;;;;;;;;;15.40;99.70;;;;;;4742736;30;19910;-91
2022/04/14 09:18:26;;;;;;;;;;;;;;;;;;;;;
2022/04/14 09:24:20;;;;;;;;;;;15.60;99.10;;;;;;4778450;30;19954;-90
2022/04/14 09:27:41;;;;;;;;;;;15.70;98.90;;;;;;4772262;30;19930;-91
2022/04/14 09:30:04;;;;;;;;;;;;;;;;;;;;;
2022/04/14 09:44:42;;;;;;;;;;;16.00;98.40;;;;;;4702567;30;19927;-90
2022/04/14 09:50:34;;;;;;;;;;;16.10;97.80;;;;;;4798401;29;19966;-90
2022/04/14 09:53:13;;;;;;;;;;;;;;;;;;;;;
2022/04/14 09:55:42;;;;;;;;;;;16.20;97.50;;;;;;4810145;29;19913;-89
2022/04/14 09:58:25;;;;;;;;;;;;;;;;;;;;;
2022/04/14 10:01:23;;;;;;;;;;;;;;;;;;;;;
2022/04/14 10:04:04;;;;;;;;;;;;;;;;;;;;;
2022/04/14 10:06:39;;;;;;;;;;;16.30;97.10;;;;;;4773640;30;19918;-90
2022/04/14 10:09:34;;;;;;;;;;;16.40;97.10;;;;;;4773259;30;20046;-89
2022/04/14 10:15:26;;;;;;;;;;;16.50;97.00;;;;;;4772718;30;19975;-89
2022/04/14 10:18:13;;;;;;;;;;;16.50;97.00;;;;;;4769478;29;19926;-91
2022/04/14 10:20:43;;;;;;;;;;;16.60;96.80;;;;;;4841924;29;19905;-90
2022/04/14 10:23:14;;;;;;;;;;;16.60;96.40;;;;;;4834424;29;19901;-89
2022/04/14 10:25:45;;;;;;;;;;;16.70;96.40;;;;;;4834614;29;20004;-90
2022/04/14 10:28:26;;;;;;;;;;;;;;;;;;;;;
2022/04/14 10:31:00;;;;;;;;;;;16.70;96.00;;;;;;4845055;29;19960;-90
2022/04/14 10:33:29;;;;;;;;;;;16.80;95.80;;;;;;4812039;29;19913;-91
2022/04/14 10:39:06;;;;;;;;;;;16.90;95.90;;;;;;4827607;29;19923;-91
2022/04/14 10:50:52;;;;;;;;;;;;;;;;;;;;;
2022/04/14 10:53:18;;;;;;;;;;;17.20;95.70;;;;;;4827655;29;19919;-90
2022/04/14 10:55:53;;;;;;;;;;;17.30;95.40;;;;;;4825797;29;20004;-90
2022/04/14 10:58:47;;;;;;;;;;;17.30;95.20;;;;;;4825962;29;19946;-90
2022/04/14 11:01:41;;;;;;;;;;;17.40;95.20;;;;;;4826103;29;20443;-90
2022/04/14 11:07:22;;;;;;;;;;;17.50;95.30;;;;;;4771237;30;19956;-90
2022/04/14 11:19:26;;;;;;;;;;;17.70;94.30;;;;;;4761705;30;19953;-90
2022/04/14 11:22:08;;;;;;;;;;;;;;;;;;;;;
2022/04/14 11:25:20;;;;;;;;;;;;;;;;;;;;;
2022/04/14 12:11:39;;;;;;;;;;;19.00;91.60;;;;;;4800280;29;20429;-90
2022/04/14 12:14:49;;;;;;;;;;;;;;;;;;;;;
2022/04/14 12:20:15;;;;;;;;;;;19.10;90.10;;;;;;4811127;29;19905;-89
2022/04/14 12:22:52;;;;;;;;;;;19.10;89.80;;;;;;4796549;29;19905;-89
2022/04/14 12:25:33;;;;;;;;;;;;;;;;;;;;;
2022/04/14 12:28:25;;;;;;;;;;;19.10;88.90;;;;;;4809449;29;20000;-89
2022/04/14 12:34:35;;;;;;;;;;;;;;;;;;;;;
2022/04/14 12:37:43;;;;;;;;;;;;;;;;;;;;;
2022/04/14 13:09:28;;;;;;;;;;;18.40;88.70;;;;;;4593016;31;19929;-90
2022/04/14 13:15:59;;;;;;;;;;;;;;;;;;;;;
2022/04/14 14:07:56;;;;;;;;;;;;;;;;;;;;;
2022/04/14 14:14:05;;;;;;;;;;;;;;;;;;;;;
2022/04/14 14:51:50;;;;;;;;;;;;;;;;;;;;;
2022/04/14 15:06:27;;;;;;;;;;;18.70;81.80;;;;;;4600619;31;19977;-88
2022/04/14 15:10:03;;;;;;;;;;;;;;;;;;;;;
2022/04/14 15:12:21;;;;;;;;;;;18.70;80.50;;;;;;4709084;29;19973;-88
2022/04/14 15:14:50;;;;;;;;;;;18.70;81.20;;;;;;4810113;29;19987;-88
2022/04/14 15:17:17;;;;;;;;;;;18.70;81.10;;;;;;4809605;29;19920;-87
2022/04/14 15:19:45;;;;;;;;;;;18.70;80.70;;;;;;4810441;29;19917;-88
2022/04/14 15:22:13;;;;;;;;;;;18.70;81.20;;;;;;4810270;29;19921;-89
2022/04/14 15:24:57;;;;;;;;;;;18.70;81.50;;;;;;4801246;29;20167;-90
2022/04/14 15:27:26;;;;;;;;;;;18.70;81.60;;;;;;4810265;29;19960;-90
2022/04/14 15:30:04;;;;;;;;;;;18.70;80.30;;;;;;4810652;29;19959;-90
2022/04/14 15:32:45;;;;;;;;;;;18.70;80.70;;;;;;4796642;29;19969;-91
2022/04/14 15:35:15;;;;;;;;;;;18.60;80.60;;;;;;4795994;29;19917;-89
2022/04/14 15:37:46;;;;;;;;;;;18.60;80.90;;;;;;4810297;29;19917;-89
2022/04/14 15:40:30;;;;;;;;;;;18.60;80.10;;;;;;4811043;29;19924;-89
2022/04/14 15:43:07;;;;;;;;;;;18.60;79.70;;;;;;4809925;29;20354;-88
2022/04/14 15:46:04;;;;;;;;;;;;;;;;;;;;;
2022/04/14 15:48:25;;;;;;;;;;;18.60;79.50;;;;;;4820358;29;19913;-88
2022/04/14 15:50:53;;;;;;;;;;;18.50;78.60;;;;;;4826322;29;20366;-88
2022/04/14 15:53:21;;;;;;;;;;;18.50;78.60;;;;;;4810785;29;20289;-88
2022/04/14 15:55:52;;;;;;;;;;;18.50;79.00;;;;;;4812000;29;19913;-89
2022/04/14 15:58:20;;;;;;;;;;;18.40;79.30;;;;;;4811339;29;20022;-89
2022/04/14 16:00:51;;;;;;;;;;;18.40;79.80;;;;;;4795721;29;19917;-89
2022/04/14 16:03:25;;;;;;;;;;;18.40;79.20;;;;;;4810543;29;19917;-89
2022/04/14 16:06:04;;;;;;;;;;;;;;;;;;;;;
2022/04/14 16:08:32;;;;;;;;;;;18.40;79.40;;;;;;4827511;29;19984;-90
2022/04/14 16:13:46;;;;;;;;;;;18.40;79.40;;;;;;4851851;29;19921;-89
2022/04/14 16:16:28;;;;;;;;;;;;;;;;;;;;;
2022/04/14 16:18:57;;;;;;;;;;;18.50;79.20;;;;;;4866018;29;19920;-87
2022/04/14 16:21:23;;;;;;;;;;;18.50;79.50;;;;;;4834867;29;19963;-88
2022/04/14 16:23:51;;;;;;;;;;;18.50;79.50;;;;;;4848749;29;19916;-88
2022/04/14 16:26:22;;;;;;;;;;;18.50;79.80;;;;;;4831405;29;19928;-88
2022/04/14 16:29:11;;;;;;;;;;;18.40;79.30;;;;;;4832532;29;20402;-88
2022/04/14 16:34:54;;;;;;;;;;;18.40;79.20;;;;;;4847093;29;20346;-89
2022/04/14 16:37:34;;;;;;;;;;;18.40;79.50;;;;;;4757575;30;20129;-89
2022/04/14 16:43:45;;;;;;;;;;;18.40;79.90;;;;;;4758581;30;19925;-96
2022/04/14 16:46:26;;;;;;;;;;;;;;;;;;;;;
2022/04/14 16:49:33;;;;;;;;;;;18.30;77.30;;;;;;4772703;30;19918;-88
2022/04/14 17:01:30;;;;;;;;;;;;;;;;;;;;;
2022/04/14 17:07:06;;;;;;;;;;;18.00;76.50;;;;;;4790620;29;19953;-90
2022/04/14 17:13:05;;;;;;;;;;;;;;;;;;;;;
2022/04/14 17:16:20;;;;;;;;;;;;;;;;;;;;;
2022/04/14 17:19:11;;;;;;;;;;;17.60;75.80;;;;;;4828947;29;19917;-91
2022/04/14 17:24:46;;;;;;;;;;;17.50;74.10;;;;;;4831242;29;19946;-92
2022/04/14 17:27:32;;;;;;;;;;;;;;;;;;;;;
2022/04/14 17:30:27;;;;;;;;;;;17.40;73.90;;;;;;4827234;29;19998;-90
2022/04/14 17:36:08;;;;;;;;;;;17.30;73.60;;;;;;4840724;29;19932;-90
2022/04/14 17:39:07;;;;;;;;;;;;;;;;;;;;;
2022/04/14 17:41:45;;;;;;;;;;;;;;;;;;;;;
2022/04/14 17:48:05;;;;;;;;;;;;;;;;;;;;;
2022/04/14 17:50:45;;;;;;;;;;;;;;;;;;;;;
2022/04/14 17:53:26;;;;;;;;;;;;;;;;;;;;;
2022/04/14 17:56:06;;;;;;;;;;;16.90;73.30;;;;;;4830617;29;19941;-89
2022/04/14 17:58:32;;;;;;;;;;;16.80;73.70;;;;;;4828496;29;19904;-90
2022/04/14 18:33:55;;;;;;;;;;;;;;;;;;;;;
2022/04/14 18:52:25;;;;;;;;;;;;;;;;;;;;;
2022/04/14 19:04:36;;;;;;;;;;;;;;;;;;;;;
2022/04/14 19:07:44;;;;;;;;;;;;;;;;;;;;;
2022/04/14 19:10:29;;;;;;;;;;;;;;;;;;;;;
2022/04/14 19:13:15;;;;;;;;;;;;;;;;;;;;;
2022/04/14 19:16:04;;;;;;;;;;;15.60;77.60;;;;;;4747685;30;20009;-89
2022/04/14 19:25:16;;;;;;;;;;;;;;;;;;;;;
2022/04/14 19:37:41;;;;;;;;;;;;;;;;;;;;;
2022/04/14 19:43:39;;;;;;;;;;;;;;;;;;;;;
2022/04/14 19:56:04;;;;;;;;;;;;;;;;;;;;;
2022/04/14 20:05:11;;;;;;;;;;;;;;;;;;;;;
2022/04/14 20:08:21;;;;;;;;;;;14.60;84.50;;;;;;4678061;30;19926;-93
2022/04/14 20:11:13;;;;;;;;;;;14.60;85.10;;;;;;4665588;30;19926;-90
2022/04/14 20:14:17;;;;;;;;;;;;;;;;;;;;;
2022/04/14 20:23:33;;;;;;;;;;;;;;;;;;;;;
2022/04/14 20:32:19;;;;;;;;;;;14.00;89.90;;;;;;4659238;30;19916;-90
2022/04/14 20:35:15;;;;;;;;;;;13.90;90.30;;;;;;4625585;30;19920;-90
2022/04/14 21:02:49;;;;;;;;;;;;;;;;;;;;;
2022/04/14 21:40:34;;;;;;;;;;;13.00;92.60;;;;;;4553976;31;19934;-95
2022/04/14 21:43:48;;;;;;;;;;;;;;;;;;;;;
2022/04/14 22:12:53;;;;;;;;;;;12.70;93.50;;;;;;4649709;30;19920;-91
2022/04/14 22:14:55;;;;;;;;;;;12.70;93.60;;;;;;4666967;30;19919;-92
2022/04/14 22:17:51;;;;;;;;;;;;;;;;;;;;;
2022/04/14 22:26:26;;;;;;;;;;;12.60;93.80;;;;;;4744695;30;19934;-90
2022/04/14 22:29:04;;;;;;;;;;;;;;;;;;;;;
2022/04/14 22:31:48;;;;;;;;;;;12.60;93.80;;;;;;4745397;30;19977;-91
2022/04/14 22:34:39;;;;;;;;;;;;;;;;;;;;;
2022/04/14 22:37:29;;;;;;;;;;;12.50;93.90;;;;;;4741664;30;20001;-90
2022/04/14 22:43:16;;;;;;;;;;;12.40;94.00;;;;;;4747813;30;19925;-90
2022/04/14 22:46:15;;;;;;;;;;;;;;;;;;;;;
2022/04/14 22:49:12;;;;;;;;;;;;;;;;;;;;;
2022/04/14 22:52:00;;;;;;;;;;;12.30;94.10;;;;;;4734128;30;20414;-92
2022/04/14 22:57:47;;;;;;;;;;;12.30;94.30;;;;;;4745376;30;20000;-91
2022/04/14 23:07:14;;;;;;;;;;;12.20;94.40;;;;;;4732953;30;20064;-90
2022/04/14 23:10:09;;;;;;;;;;;;;;;;;;;;;
2022/04/14 23:22:17;;;;;;;;;;;;;;;;;;;;;
2022/04/14 23:25:06;;;;;;;;;;;12.00;94.90;;;;;;4771233;30;19945;-90
2022/04/14 23:43:02;;;;;;;;;;;;;;;;;;;;;
2022/04/14 23:45:55;;;;;;;;;;;11.70;95.40;;;;;;4751361;30;19926;-91
2022/04/14 23:54:51;;;;;;;;;;;11.60;95.70;;;;;;4686515;30;19947;-91
